sensor_id;sensor_type;location;lat;lon;timestamp;P1;durP1;ratioP1;P2;durP2;ratioP2
2406;SDS011;37709;53.480;9.688;2023-02-28T00:01:24;3.33;;;2.50;;
2406;SDS011;37709;53.480;9.688;2023-02-28T00:03:52;3.30;;;2.97;;
2406;SDS011;37709;53.480;9.688;2023-02-28T00:06:20;4.40;;;2.70;;
2406;SDS011;37709;53.480;9.688;2023-02-28T00:08:48;3.40;;;2.43;;
2406;SDS011;37709;53.480;9.688;2023-02-28T00:11:15;6.40;;;2.67;;
2406;SDS011;37709;53.480;9.688;2023-02-28T00:13:44;4.47;;;2.93;;
2406;SDS011;37709;53.480;9.688;2023-02-28T00:16:17;4.57;;;2.87;;
2406;SDS011;37709;53.480;9.688;2023-02-28T00:18:46;4.27;;;3.03;;
2406;SDS011;37709;53.480;9.688;2023-02-28T00:21:14;4.53;;;2.80;;
2406;SDS011;37709;53.480;9.688;2023-02-28T00:23:42;4.77;;;3.37;;
2406;SDS011;37709;53.480;9.688;2023-02-28T00:26:10;3.50;;;3.03;;
2406;SDS011;37709;53.480;9.688;2023-02-28T00:28:41;4.60;;;2.97;;
2406;SDS011;37709;53.480;9.688;2023-02-28T00:31:08;4.10;;;3.30;;
2406;SDS011;37709;53.480;9.688;2023-02-28T00:33:36;6.83;;;3.27;;
2406;SDS011;37709;53.480;9.688;2023-02-28T00:36:04;5.07;;;3.33;;
2406;SDS011;37709;53.480;9.688;2023-02-28T00:38:35;4.20;;;3.10;;
2406;SDS011;37709;53.480;9.688;2023-02-28T00:41:03;5.93;;;3.07;;
2406;SDS011;37709;53.480;9.688;2023-02-28T00:43:35;6.10;;;3.13;;
2406;SDS011;37709;53.480;9.688;2023-02-28T00:46:03;3.33;;;2.50;;
2406;SDS011;37709;53.480;9.688;2023-02-28T00:48:31;4.93;;;2.50;;
2406;SDS011;37709;53.480;9.688;2023-02-28T00:50:59;3.60;;;2.63;;
2406;SDS011;37709;53.480;9.688;2023-02-28T00:53:26;3.10;;;2.30;;
2406;SDS011;37709;53.480;9.688;2023-02-28T00:55:56;5.57;;;3.53;;
2406;SDS011;37709;53.480;9.688;2023-02-28T00:58:25;2.77;;;2.47;;
2406;SDS011;37709;53.480;9.688;2023-02-28T01:00:53;3.83;;;2.87;;
2406;SDS011;37709;53.480;9.688;2023-02-28T01:03:20;2.43;;;2.23;;
2406;SDS011;37709;53.480;9.688;2023-02-28T01:05:49;4.17;;;2.77;;
2406;SDS011;37709;53.480;9.688;2023-02-28T01:08:16;4.50;;;2.67;;
2406;SDS011;37709;53.480;9.688;2023-02-28T01:10:43;4.53;;;2.77;;
2406;SDS011;37709;53.480;9.688;2023-02-28T01:13:11;4.23;;;3.43;;
2406;SDS011;37709;53.480;9.688;2023-02-28T01:15:43;3.60;;;2.73;;
2406;SDS011;37709;53.480;9.688;2023-02-28T01:18:15;3.93;;;2.60;;
2406;SDS011;37709;53.480;9.688;2023-02-28T01:20:42;3.00;;;2.73;;
2406;SDS011;37709;53.480;9.688;2023-02-28T01:23:10;4.63;;;3.00;;
2406;SDS011;37709;53.480;9.688;2023-02-28T01:25:37;3.40;;;2.60;;
2406;SDS011;37709;53.480;9.688;2023-02-28T01:28:05;7.03;;;3.07;;
2406;SDS011;37709;53.480;9.688;2023-02-28T01:30:33;3.70;;;2.90;;
2406;SDS011;37709;53.480;9.688;2023-02-28T01:33:01;4.03;;;3.00;;
2406;SDS011;37709;53.480;9.688;2023-02-28T01:35:32;5.20;;;2.83;;
2406;SDS011;37709;53.480;9.688;2023-02-28T01:38:01;4.30;;;3.43;;
2406;SDS011;37709;53.480;9.688;2023-02-28T01:40:46;4.90;;;3.03;;
2406;SDS011;37709;53.480;9.688;2023-02-28T01:43:22;3.50;;;2.87;;
2406;SDS011;37709;53.480;9.688;2023-02-28T01:45:55;5.33;;;3.13;;
2406;SDS011;37709;53.480;9.688;2023-02-28T01:48:26;3.73;;;2.93;;
2406;SDS011;37709;53.480;9.688;2023-02-28T01:50:57;3.47;;;2.80;;
2406;SDS011;37709;53.480;9.688;2023-02-28T01:53:35;3.23;;;2.93;;
2406;SDS011;37709;53.480;9.688;2023-02-28T01:56:08;3.63;;;2.60;;
2406;SDS011;37709;53.480;9.688;2023-02-28T01:58:38;3.57;;;3.00;;
2406;SDS011;37709;53.480;9.688;2023-02-28T02:01:05;4.13;;;3.17;;
2406;SDS011;37709;53.480;9.688;2023-02-28T02:03:33;4.93;;;3.10;;
2406;SDS011;37709;53.480;9.688;2023-02-28T02:06:04;4.60;;;4.13;;
2406;SDS011;37709;53.480;9.688;2023-02-28T02:08:32;5.07;;;3.17;;
2406;SDS011;37709;53.480;9.688;2023-02-28T02:11:00;5.63;;;3.07;;
2406;SDS011;37709;53.480;9.688;2023-02-28T02:16:50;4.50;;;3.00;;
2406;SDS011;37709;53.480;9.688;2023-02-28T02:19:46;6.20;;;3.40;;
2406;SDS011;37709;53.480;9.688;2023-02-28T02:22:24;7.83;;;3.17;;
2406;SDS011;37709;53.480;9.688;2023-02-28T02:25:23;4.30;;;3.23;;
2406;SDS011;37709;53.480;9.688;2023-02-28T02:31:05;3.10;;;2.80;;
2406;SDS011;37709;53.480;9.688;2023-02-28T02:39:48;3.67;;;3.10;;
2406;SDS011;37709;53.480;9.688;2023-02-28T02:42:24;4.50;;;3.07;;
2406;SDS011;37709;53.480;9.688;2023-02-28T02:45:00;3.80;;;3.37;;
2406;SDS011;37709;53.480;9.688;2023-02-28T02:47:32;5.43;;;4.00;;
2406;SDS011;37709;53.480;9.688;2023-02-28T02:50:04;4.17;;;2.73;;
2406;SDS011;37709;53.480;9.688;2023-02-28T02:52:36;9.43;;;3.50;;
2406;SDS011;37709;53.480;9.688;2023-02-28T02:55:09;3.90;;;3.43;;
2406;SDS011;37709;53.480;9.688;2023-02-28T02:57:45;3.90;;;3.07;;
2406;SDS011;37709;53.480;9.688;2023-02-28T03:00:20;4.60;;;3.17;;
2406;SDS011;37709;53.480;9.688;2023-02-28T03:02:52;4.30;;;3.00;;
2406;SDS011;37709;53.480;9.688;2023-02-28T03:05:26;6.97;;;4.57;;
2406;SDS011;37709;53.480;9.688;2023-02-28T03:07:59;6.73;;;3.70;;
2406;SDS011;37709;53.480;9.688;2023-02-28T03:13:09;5.57;;;3.43;;
2406;SDS011;37709;53.480;9.688;2023-02-28T03:15:52;4.20;;;3.47;;
2406;SDS011;37709;53.480;9.688;2023-02-28T03:24:30;5.40;;;3.60;;
2406;SDS011;37709;53.480;9.688;2023-02-28T03:27:17;4.80;;;3.20;;
2406;SDS011;37709;53.480;9.688;2023-02-28T03:29:51;4.77;;;3.43;;
2406;SDS011;37709;53.480;9.688;2023-02-28T03:32:33;4.27;;;3.00;;
2406;SDS011;37709;53.480;9.688;2023-02-28T03:35:11;5.10;;;3.50;;
2406;SDS011;37709;53.480;9.688;2023-02-28T03:37:53;6.03;;;3.20;;
2406;SDS011;37709;53.480;9.688;2023-02-28T03:40:27;4.50;;;2.83;;
2406;SDS011;37709;53.480;9.688;2023-02-28T03:43:07;4.40;;;3.27;;
2406;SDS011;37709;53.480;9.688;2023-02-28T03:45:39;6.70;;;2.40;;
2406;SDS011;37709;53.480;9.688;2023-02-28T03:48:13;6.37;;;3.37;;
2406;SDS011;37709;53.480;9.688;2023-02-28T03:50:45;4.13;;;3.53;;
2406;SDS011;37709;53.480;9.688;2023-02-28T03:53:18;3.10;;;2.80;;
2406;SDS011;37709;53.480;9.688;2023-02-28T03:55:48;5.47;;;3.77;;
2406;SDS011;37709;53.480;9.688;2023-02-28T04:01:25;4.30;;;3.30;;
2406;SDS011;37709;53.480;9.688;2023-02-28T04:03:59;3.17;;;2.87;;
2406;SDS011;37709;53.480;9.688;2023-02-28T04:06:27;7.57;;;3.57;;
2406;SDS011;37709;53.480;9.688;2023-02-28T04:08:58;8.03;;;3.63;;
2406;SDS011;37709;53.480;9.688;2023-02-28T04:11:29;6.87;;;3.00;;
2406;SDS011;37709;53.480;9.688;2023-02-28T04:13:59;5.67;;;3.23;;
2406;SDS011;37709;53.480;9.688;2023-02-28T04:16:26;5.10;;;3.30;;
2406;SDS011;37709;53.480;9.688;2023-02-28T04:19:02;4.97;;;3.30;;
2406;SDS011;37709;53.480;9.688;2023-02-28T04:21:33;3.60;;;3.00;;
2406;SDS011;37709;53.480;9.688;2023-02-28T04:24:12;6.00;;;3.00;;
2406;SDS011;37709;53.480;9.688;2023-02-28T04:26:42;6.67;;;3.37;;
2406;SDS011;37709;53.480;9.688;2023-02-28T04:29:18;5.50;;;3.40;;
2406;SDS011;37709;53.480;9.688;2023-02-28T04:31:48;4.27;;;3.17;;
2406;SDS011;37709;53.480;9.688;2023-02-28T04:34:16;5.13;;;3.97;;
2406;SDS011;37709;53.480;9.688;2023-02-28T04:36:43;6.73;;;3.20;;
2406;SDS011;37709;53.480;9.688;2023-02-28T04:39:11;4.90;;;3.10;;
2406;SDS011;37709;53.480;9.688;2023-02-28T04:41:38;5.10;;;4.60;;
2406;SDS011;37709;53.480;9.688;2023-02-28T04:44:06;4.50;;;3.43;;
2406;SDS011;37709;53.480;9.688;2023-02-28T04:46:33;7.50;;;3.37;;
2406;SDS011;37709;53.480;9.688;2023-02-28T04:49:00;4.87;;;3.37;;
2406;SDS011;37709;53.480;9.688;2023-02-28T04:51:28;5.13;;;2.93;;
2406;SDS011;37709;53.480;9.688;2023-02-28T04:53:56;8.00;;;3.07;;
2406;SDS011;37709;53.480;9.688;2023-02-28T04:56:23;4.40;;;2.87;;
2406;SDS011;37709;53.480;9.688;2023-02-28T04:58:51;4.17;;;2.93;;
2406;SDS011;37709;53.480;9.688;2023-02-28T05:01:30;3.17;;;2.87;;
2406;SDS011;37709;53.480;9.688;2023-02-28T05:04:00;4.20;;;3.13;;
2406;SDS011;37709;53.480;9.688;2023-02-28T05:06:29;4.47;;;3.33;;
2406;SDS011;37709;53.480;9.688;2023-02-28T05:08:58;4.83;;;3.00;;
2406;SDS011;37709;53.480;9.688;2023-02-28T05:11:27;3.60;;;2.90;;
2406;SDS011;37709;53.480;9.688;2023-02-28T05:14:01;4.53;;;3.43;;
2406;SDS011;37709;53.480;9.688;2023-02-28T05:16:32;4.90;;;2.90;;
2406;SDS011;37709;53.480;9.688;2023-02-28T05:18:59;5.43;;;3.13;;
2406;SDS011;37709;53.480;9.688;2023-02-28T05:21:28;5.13;;;3.60;;
2406;SDS011;37709;53.480;9.688;2023-02-28T05:24:00;4.57;;;3.70;;
2406;SDS011;37709;53.480;9.688;2023-02-28T05:26:29;6.10;;;4.33;;
2406;SDS011;37709;53.480;9.688;2023-02-28T05:28:57;7.27;;;3.50;;
2406;SDS011;37709;53.480;9.688;2023-02-28T05:31:24;4.17;;;3.60;;
2406;SDS011;37709;53.480;9.688;2023-02-28T05:33:51;4.27;;;3.00;;
2406;SDS011;37709;53.480;9.688;2023-02-28T05:36:19;5.40;;;3.67;;
2406;SDS011;37709;53.480;9.688;2023-02-28T05:38:47;6.10;;;3.90;;
2406;SDS011;37709;53.480;9.688;2023-02-28T05:41:15;6.13;;;3.67;;
2406;SDS011;37709;53.480;9.688;2023-02-28T05:43:43;3.93;;;3.53;;
2406;SDS011;37709;53.480;9.688;2023-02-28T05:46:11;7.17;;;4.00;;
2406;SDS011;37709;53.480;9.688;2023-02-28T05:48:40;4.33;;;3.77;;
2406;SDS011;37709;53.480;9.688;2023-02-28T05:51:09;5.07;;;3.60;;
2406;SDS011;37709;53.480;9.688;2023-02-28T05:53:36;6.50;;;3.80;;
2406;SDS011;37709;53.480;9.688;2023-02-28T05:56:04;5.00;;;3.87;;
2406;SDS011;37709;53.480;9.688;2023-02-28T05:58:32;4.83;;;3.40;;
2406;SDS011;37709;53.480;9.688;2023-02-28T06:01:00;7.67;;;3.63;;
2406;SDS011;37709;53.480;9.688;2023-02-28T06:03:45;5.90;;;4.20;;
2406;SDS011;37709;53.480;9.688;2023-02-28T06:06:13;4.10;;;3.43;;
2406;SDS011;37709;53.480;9.688;2023-02-28T06:08:40;3.50;;;3.13;;
2406;SDS011;37709;53.480;9.688;2023-02-28T06:11:10;4.00;;;3.60;;
2406;SDS011;37709;53.480;9.688;2023-02-28T06:13:38;5.07;;;4.00;;
2406;SDS011;37709;53.480;9.688;2023-02-28T06:16:05;4.13;;;3.60;;
2406;SDS011;37709;53.480;9.688;2023-02-28T06:18:33;4.83;;;3.40;;
2406;SDS011;37709;53.480;9.688;2023-02-28T06:21:01;5.60;;;3.70;;
2406;SDS011;37709;53.480;9.688;2023-02-28T06:23:28;5.50;;;3.87;;
2406;SDS011;37709;53.480;9.688;2023-02-28T06:25:56;9.40;;;3.40;;
2406;SDS011;37709;53.480;9.688;2023-02-28T06:28:26;4.53;;;4.00;;
2406;SDS011;37709;53.480;9.688;2023-02-28T06:30:53;6.73;;;3.60;;
2406;SDS011;37709;53.480;9.688;2023-02-28T06:33:20;7.97;;;4.00;;
2406;SDS011;37709;53.480;9.688;2023-02-28T06:35:51;5.20;;;3.43;;
2406;SDS011;37709;53.480;9.688;2023-02-28T06:38:18;5.40;;;4.03;;
2406;SDS011;37709;53.480;9.688;2023-02-28T06:40:52;7.40;;;3.60;;
2406;SDS011;37709;53.480;9.688;2023-02-28T06:43:20;4.80;;;3.93;;
2406;SDS011;37709;53.480;9.688;2023-02-28T06:45:48;7.30;;;4.40;;
2406;SDS011;37709;53.480;9.688;2023-02-28T06:48:16;5.43;;;4.10;;
2406;SDS011;37709;53.480;9.688;2023-02-28T06:50:45;5.60;;;4.30;;
2406;SDS011;37709;53.480;9.688;2023-02-28T06:53:13;4.57;;;3.50;;
2406;SDS011;37709;53.480;9.688;2023-02-28T06:55:41;5.30;;;3.30;;
2406;SDS011;37709;53.480;9.688;2023-02-28T06:58:08;6.77;;;3.70;;
2406;SDS011;37709;53.480;9.688;2023-02-28T07:00:45;5.77;;;3.53;;
2406;SDS011;37709;53.480;9.688;2023-02-28T07:03:13;4.60;;;3.63;;
2406;SDS011;37709;53.480;9.688;2023-02-28T07:05:42;6.57;;;3.40;;
2406;SDS011;37709;53.480;9.688;2023-02-28T07:08:09;5.03;;;3.30;;
2406;SDS011;37709;53.480;9.688;2023-02-28T07:10:36;4.07;;;3.40;;
2406;SDS011;37709;53.480;9.688;2023-02-28T07:13:05;4.07;;;2.97;;
2406;SDS011;37709;53.480;9.688;2023-02-28T07:15:34;3.70;;;3.30;;
2406;SDS011;37709;53.480;9.688;2023-02-28T07:18:06;4.33;;;3.43;;
2406;SDS011;37709;53.480;9.688;2023-02-28T07:20:34;4.00;;;3.00;;
2406;SDS011;37709;53.480;9.688;2023-02-28T07:23:01;4.23;;;3.10;;
2406;SDS011;37709;53.480;9.688;2023-02-28T07:25:29;6.30;;;3.10;;
2406;SDS011;37709;53.480;9.688;2023-02-28T07:27:56;3.63;;;3.30;;
2406;SDS011;37709;53.480;9.688;2023-02-28T07:30:25;3.37;;;3.07;;
2406;SDS011;37709;53.480;9.688;2023-02-28T07:32:55;4.67;;;2.67;;
2406;SDS011;37709;53.480;9.688;2023-02-28T07:35:23;2.90;;;2.60;;
2406;SDS011;37709;53.480;9.688;2023-02-28T07:37:51;3.87;;;2.57;;
2406;SDS011;37709;53.480;9.688;2023-02-28T07:40:19;2.60;;;2.33;;
2406;SDS011;37709;53.480;9.688;2023-02-28T07:42:46;3.47;;;2.50;;
2406;SDS011;37709;53.480;9.688;2023-02-28T07:45:16;3.30;;;2.70;;
2406;SDS011;37709;53.480;9.688;2023-02-28T07:47:44;4.23;;;3.37;;
2406;SDS011;37709;53.480;9.688;2023-02-28T07:50:12;4.17;;;3.30;;
2406;SDS011;37709;53.480;9.688;2023-02-28T07:52:42;3.20;;;2.90;;
2406;SDS011;37709;53.480;9.688;2023-02-28T07:55:09;3.23;;;2.93;;
2406;SDS011;37709;53.480;9.688;2023-02-28T07:57:37;3.37;;;2.93;;
2406;SDS011;37709;53.480;9.688;2023-02-28T08:00:04;4.37;;;2.83;;
2406;SDS011;37709;53.480;9.688;2023-02-28T08:02:37;3.83;;;3.37;;
2406;SDS011;37709;53.480;9.688;2023-02-28T08:05:05;4.20;;;3.80;;
2406;SDS011;37709;53.480;9.688;2023-02-28T08:07:33;3.20;;;2.90;;
2406;SDS011;37709;53.480;9.688;2023-02-28T08:10:00;4.57;;;2.70;;
2406;SDS011;37709;53.480;9.688;2023-02-28T08:12:27;4.57;;;2.83;;
2406;SDS011;37709;53.480;9.688;2023-02-28T08:14:54;3.47;;;3.17;;
2406;SDS011;37709;53.480;9.688;2023-02-28T08:17:21;2.90;;;2.60;;
2406;SDS011;37709;53.480;9.688;2023-02-28T08:19:49;3.20;;;2.70;;
2406;SDS011;37709;53.480;9.688;2023-02-28T08:22:16;3.43;;;2.73;;
2406;SDS011;37709;53.480;9.688;2023-02-28T08:24:43;4.93;;;2.70;;
2406;SDS011;37709;53.480;9.688;2023-02-28T08:27:11;3.33;;;2.70;;
2406;SDS011;37709;53.480;9.688;2023-02-28T08:29:38;3.30;;;2.40;;
2406;SDS011;37709;53.480;9.688;2023-02-28T08:32:06;3.10;;;2.20;;
2406;SDS011;37709;53.480;9.688;2023-02-28T08:34:49;3.37;;;2.67;;
2406;SDS011;37709;53.480;9.688;2023-02-28T08:37:17;3.77;;;2.70;;
2406;SDS011;37709;53.480;9.688;2023-02-28T08:39:44;2.63;;;2.43;;
2406;SDS011;37709;53.480;9.688;2023-02-28T08:42:12;3.37;;;1.93;;
2406;SDS011;37709;53.480;9.688;2023-02-28T08:44:40;3.63;;;2.13;;
2406;SDS011;37709;53.480;9.688;2023-02-28T08:47:07;2.07;;;1.70;;
2406;SDS011;37709;53.480;9.688;2023-02-28T08:49:34;3.57;;;2.00;;
2406;SDS011;37709;53.480;9.688;2023-02-28T08:52:03;3.47;;;2.07;;
2406;SDS011;37709;53.480;9.688;2023-02-28T08:54:31;2.20;;;2.00;;
2406;SDS011;37709;53.480;9.688;2023-02-28T08:56:59;3.20;;;1.90;;
2406;SDS011;37709;53.480;9.688;2023-02-28T08:59:27;2.13;;;1.40;;
2406;SDS011;37709;53.480;9.688;2023-02-28T09:01:54;2.00;;;1.40;;
2406;SDS011;37709;53.480;9.688;2023-02-28T09:04:21;1.90;;;1.70;;
2406;SDS011;37709;53.480;9.688;2023-02-28T09:06:51;1.60;;;1.30;;
2406;SDS011;37709;53.480;9.688;2023-02-28T09:09:18;1.90;;;1.60;;
2406;SDS011;37709;53.480;9.688;2023-02-28T09:11:45;1.73;;;1.20;;
2406;SDS011;37709;53.480;9.688;2023-02-28T09:14:13;1.70;;;1.20;;
2406;SDS011;37709;53.480;9.688;2023-02-28T09:16:40;2.10;;;1.23;;
2406;SDS011;37709;53.480;9.688;2023-02-28T09:19:10;2.03;;;1.00;;
2406;SDS011;37709;53.480;9.688;2023-02-28T09:21:38;1.83;;;1.10;;
2406;SDS011;37709;53.480;9.688;2023-02-28T09:24:05;1.67;;;0.97;;
2406;SDS011;37709;53.480;9.688;2023-02-28T09:26:33;1.90;;;0.93;;
2406;SDS011;37709;53.480;9.688;2023-02-28T09:29:09;1.37;;;1.00;;
2406;SDS011;37709;53.480;9.688;2023-02-28T09:31:36;2.23;;;1.20;;
2406;SDS011;37709;53.480;9.688;2023-02-28T09:34:03;1.70;;;1.10;;
2406;SDS011;37709;53.480;9.688;2023-02-28T09:36:31;1.90;;;1.37;;
2406;SDS011;37709;53.480;9.688;2023-02-28T09:39:10;2.00;;;0.93;;
2406;SDS011;37709;53.480;9.688;2023-02-28T09:41:43;1.10;;;0.87;;
2406;SDS011;37709;53.480;9.688;2023-02-28T09:44:20;0.90;;;0.60;;
2406;SDS011;37709;53.480;9.688;2023-02-28T09:47:14;1.50;;;1.07;;
2406;SDS011;37709;53.480;9.688;2023-02-28T09:49:47;0.90;;;0.60;;
2406;SDS011;37709;53.480;9.688;2023-02-28T09:52:17;1.90;;;0.63;;
2406;SDS011;37709;53.480;9.688;2023-02-28T09:54:47;1.40;;;0.80;;
2406;SDS011;37709;53.480;9.688;2023-02-28T10:05:56;3.10;;;0.97;;
2406;SDS011;37709;53.480;9.688;2023-02-28T10:09:06;0.97;;;0.73;;
2406;SDS011;37709;53.480;9.688;2023-02-28T10:11:40;0.90;;;0.70;;
2406;SDS011;37709;53.480;9.688;2023-02-28T10:16:46;1.37;;;0.80;;
2406;SDS011;37709;53.480;9.688;2023-02-28T10:20:05;1.00;;;0.70;;
2406;SDS011;37709;53.480;9.688;2023-02-28T10:22:43;1.60;;;0.73;;
2406;SDS011;37709;53.480;9.688;2023-02-28T10:25:20;1.30;;;1.00;;
2406;SDS011;37709;53.480;9.688;2023-02-28T10:27:59;1.37;;;0.70;;
2406;SDS011;37709;53.480;9.688;2023-02-28T10:30:35;1.17;;;1.07;;
2406;SDS011;37709;53.480;9.688;2023-02-28T10:33:04;1.40;;;1.00;;
2406;SDS011;37709;53.480;9.688;2023-02-28T10:35:31;1.30;;;1.00;;
2406;SDS011;37709;53.480;9.688;2023-02-28T10:38:00;1.60;;;0.90;;
2406;SDS011;37709;53.480;9.688;2023-02-28T10:40:42;1.00;;;0.80;;
2406;SDS011;37709;53.480;9.688;2023-02-28T10:45:51;1.20;;;0.80;;
2406;SDS011;37709;53.480;9.688;2023-02-28T10:48:27;1.10;;;0.80;;
2406;SDS011;37709;53.480;9.688;2023-02-28T10:50:57;2.03;;;1.10;;
2406;SDS011;37709;53.480;9.688;2023-02-28T10:53:31;1.20;;;0.90;;
2406;SDS011;37709;53.480;9.688;2023-02-28T10:56:28;2.10;;;1.00;;
2406;SDS011;37709;53.480;9.688;2023-02-28T11:03:59;1.30;;;0.90;;
2406;SDS011;37709;53.480;9.688;2023-02-28T11:06:30;2.00;;;1.20;;
2406;SDS011;37709;53.480;9.688;2023-02-28T11:09:02;2.70;;;0.90;;
2406;SDS011;37709;53.480;9.688;2023-02-28T11:11:41;1.20;;;0.83;;
2406;SDS011;37709;53.480;9.688;2023-02-28T11:14:18;1.40;;;0.97;;
2406;SDS011;37709;53.480;9.688;2023-02-28T11:16:49;1.37;;;0.90;;
2406;SDS011;37709;53.480;9.688;2023-02-28T11:19:19;1.77;;;0.93;;
2406;SDS011;37709;53.480;9.688;2023-02-28T11:22:00;1.37;;;0.80;;
2406;SDS011;37709;53.480;9.688;2023-02-28T11:24:31;1.57;;;1.10;;
2406;SDS011;37709;53.480;9.688;2023-02-28T11:27:03;2.00;;;0.90;;
2406;SDS011;37709;53.480;9.688;2023-02-28T11:29:32;2.53;;;0.90;;
2406;SDS011;37709;53.480;9.688;2023-02-28T11:34:38;1.57;;;1.30;;
2406;SDS011;37709;53.480;9.688;2023-02-28T11:37:11;1.33;;;0.93;;
2406;SDS011;37709;53.480;9.688;2023-02-28T11:39:41;1.07;;;0.97;;
2406;SDS011;37709;53.480;9.688;2023-02-28T11:42:23;1.00;;;0.80;;
2406;SDS011;37709;53.480;9.688;2023-02-28T11:52:53;1.20;;;1.00;;
2406;SDS011;37709;53.480;9.688;2023-02-28T11:55:39;1.50;;;1.00;;
2406;SDS011;37709;53.480;9.688;2023-02-28T11:58:14;2.70;;;0.90;;
2406;SDS011;37709;53.480;9.688;2023-02-28T12:06:57;2.20;;;1.07;;
2406;SDS011;37709;53.480;9.688;2023-02-28T12:09:44;2.88;;;1.10;;
2406;SDS011;37709;53.480;9.688;2023-02-28T12:15:17;1.93;;;1.07;;
2406;SDS011;37709;53.480;9.688;2023-02-28T12:17:51;1.20;;;1.00;;
2406;SDS011;37709;53.480;9.688;2023-02-28T12:20:37;1.30;;;1.10;;
2406;SDS011;37709;53.480;9.688;2023-02-28T12:26:07;1.90;;;1.47;;
2406;SDS011;37709;53.480;9.688;2023-02-28T12:28:54;1.63;;;1.10;;
2406;SDS011;37709;53.480;9.688;2023-02-28T12:31:33;2.40;;;1.60;;
2406;SDS011;37709;53.480;9.688;2023-02-28T12:34:16;1.77;;;1.20;;
2406;SDS011;37709;53.480;9.688;2023-02-28T12:36:47;2.07;;;1.00;;
2406;SDS011;37709;53.480;9.688;2023-02-28T12:39:25;1.10;;;0.93;;
2406;SDS011;37709;53.480;9.688;2023-02-28T12:42:02;1.33;;;0.97;;
2406;SDS011;37709;53.480;9.688;2023-02-28T12:47:04;1.40;;;1.30;;
2406;SDS011;37709;53.480;9.688;2023-02-28T12:52:23;1.23;;;0.97;;
2406;SDS011;37709;53.480;9.688;2023-02-28T12:55:13;1.43;;;1.00;;
2406;SDS011;37709;53.480;9.688;2023-02-28T12:57:50;1.63;;;1.10;;
2406;SDS011;37709;53.480;9.688;2023-02-28T13:00:28;1.70;;;1.20;;
2406;SDS011;37709;53.480;9.688;2023-02-28T13:03:06;2.33;;;1.03;;
2406;SDS011;37709;53.480;9.688;2023-02-28T13:06:05;1.83;;;1.47;;
2406;SDS011;37709;53.480;9.688;2023-02-28T13:11:31;1.50;;;1.00;;
2406;SDS011;37709;53.480;9.688;2023-02-28T13:14:16;1.10;;;1.00;;
2406;SDS011;37709;53.480;9.688;2023-02-28T13:17:33;1.20;;;0.80;;
2406;SDS011;37709;53.480;9.688;2023-02-28T13:22:36;3.40;;;1.33;;
2406;SDS011;37709;53.480;9.688;2023-02-28T13:26:00;1.50;;;1.30;;
2406;SDS011;37709;53.480;9.688;2023-02-28T13:28:11;1.40;;;1.10;;
2406;SDS011;37709;53.480;9.688;2023-02-28T13:31:03;1.60;;;1.10;;
2406;SDS011;37709;53.480;9.688;2023-02-28T13:33:35;1.38;;;1.27;;
2406;SDS011;37709;53.480;9.688;2023-02-28T13:38:42;3.57;;;1.20;;
2406;SDS011;37709;53.480;9.688;2023-02-28T13:43:59;2.20;;;1.10;;
2406;SDS011;37709;53.480;9.688;2023-02-28T13:47:27;1.40;;;1.20;;
2406;SDS011;37709;53.480;9.688;2023-02-28T13:49:32;1.60;;;1.33;;
2406;SDS011;37709;53.480;9.688;2023-02-28T14:06:28;1.43;;;1.27;;
2406;SDS011;37709;53.480;9.688;2023-02-28T14:11:39;1.43;;;1.10;;
2406;SDS011;37709;53.480;9.688;2023-02-28T14:14:09;2.10;;;1.60;;
2406;SDS011;37709;53.480;9.688;2023-02-28T14:17:05;3.33;;;1.47;;
2406;SDS011;37709;53.480;9.688;2023-02-28T14:19:37;2.63;;;1.50;;
2406;SDS011;37709;53.480;9.688;2023-02-28T14:22:27;2.77;;;1.80;;
2406;SDS011;37709;53.480;9.688;2023-02-28T14:27:48;2.40;;;1.30;;
2406;SDS011;37709;53.480;9.688;2023-02-28T14:30:40;3.47;;;1.23;;
2406;SDS011;37709;53.480;9.688;2023-02-28T14:33:38;2.97;;;1.67;;
2406;SDS011;37709;53.480;9.688;2023-02-28T14:41:22;2.37;;;1.33;;
2406;SDS011;37709;53.480;9.688;2023-02-28T14:43:58;1.87;;;1.40;;
2406;SDS011;37709;53.480;9.688;2023-02-28T14:46:32;1.57;;;1.40;;
2406;SDS011;37709;53.480;9.688;2023-02-28T14:49:06;1.43;;;1.30;;
2406;SDS011;37709;53.480;9.688;2023-02-28T14:51:39;2.77;;;1.43;;
2406;SDS011;37709;53.480;9.688;2023-02-28T14:54:07;1.95;;;1.40;;
2406;SDS011;37709;53.480;9.688;2023-02-28T14:56:40;1.77;;;1.50;;
2406;SDS011;37709;53.480;9.688;2023-02-28T14:59:22;2.10;;;1.90;;
2406;SDS011;37709;53.480;9.688;2023-02-28T15:02:17;2.53;;;1.50;;
2406;SDS011;37709;53.480;9.688;2023-02-28T15:07:43;1.50;;;1.40;;
2406;SDS011;37709;53.480;9.688;2023-02-28T15:13:09;2.47;;;1.80;;
2406;SDS011;37709;53.480;9.688;2023-02-28T15:15:54;2.17;;;1.80;;
2406;SDS011;37709;53.480;9.688;2023-02-28T15:21:21;4.10;;;1.83;;
2406;SDS011;37709;53.480;9.688;2023-02-28T15:23:55;2.10;;;1.80;;
2406;SDS011;37709;53.480;9.688;2023-02-28T15:26:27;2.17;;;1.40;;
2406;SDS011;37709;53.480;9.688;2023-02-28T15:28:59;1.73;;;1.53;;
2406;SDS011;37709;53.480;9.688;2023-02-28T15:31:33;2.17;;;2.00;;
2406;SDS011;37709;53.480;9.688;2023-02-28T15:34:37;2.30;;;1.50;;
2406;SDS011;37709;53.480;9.688;2023-02-28T15:42:38;1.50;;;1.30;;
2406;SDS011;37709;53.480;9.688;2023-02-28T15:45:25;1.60;;;1.40;;
2406;SDS011;37709;53.480;9.688;2023-02-28T15:47:55;1.97;;;1.37;;
2406;SDS011;37709;53.480;9.688;2023-02-28T15:50:28;2.70;;;1.60;;
2406;SDS011;37709;53.480;9.688;2023-02-28T15:52:57;3.70;;;1.60;;
2406;SDS011;37709;53.480;9.688;2023-02-28T15:55:27;2.70;;;1.50;;
2406;SDS011;37709;53.480;9.688;2023-02-28T15:57:56;2.07;;;1.77;;
2406;SDS011;37709;53.480;9.688;2023-02-28T16:00:28;3.00;;;1.67;;
2406;SDS011;37709;53.480;9.688;2023-02-28T16:02:59;3.37;;;1.80;;
2406;SDS011;37709;53.480;9.688;2023-02-28T16:05:30;1.80;;;1.60;;
2406;SDS011;37709;53.480;9.688;2023-02-28T16:07:59;2.07;;;1.57;;
2406;SDS011;37709;53.480;9.688;2023-02-28T16:10:41;1.80;;;1.70;;
2406;SDS011;37709;53.480;9.688;2023-02-28T16:13:09;2.23;;;1.73;;
2406;SDS011;37709;53.480;9.688;2023-02-28T16:15:41;2.97;;;1.90;;
2406;SDS011;37709;53.480;9.688;2023-02-28T16:18:11;2.50;;;2.23;;
2406;SDS011;37709;53.480;9.688;2023-02-28T16:20:39;3.40;;;2.50;;
2406;SDS011;37709;53.480;9.688;2023-02-28T16:23:07;4.13;;;1.90;;
2406;SDS011;37709;53.480;9.688;2023-02-28T16:25:38;2.37;;;1.60;;
2406;SDS011;37709;53.480;9.688;2023-02-28T16:28:15;2.97;;;1.80;;
2406;SDS011;37709;53.480;9.688;2023-02-28T16:30:47;3.07;;;2.10;;
2406;SDS011;37709;53.480;9.688;2023-02-28T16:33:14;4.03;;;1.73;;
2406;SDS011;37709;53.480;9.688;2023-02-28T16:35:41;2.00;;;1.73;;
2406;SDS011;37709;53.480;9.688;2023-02-28T16:38:10;3.50;;;1.90;;
2406;SDS011;37709;53.480;9.688;2023-02-28T16:40:37;3.50;;;1.60;;
2406;SDS011;37709;53.480;9.688;2023-02-28T16:43:05;3.13;;;1.93;;
2406;SDS011;37709;53.480;9.688;2023-02-28T16:45:39;2.80;;;1.93;;
2406;SDS011;37709;53.480;9.688;2023-02-28T16:48:08;2.20;;;1.60;;
2406;SDS011;37709;53.480;9.688;2023-02-28T16:50:40;3.47;;;2.00;;
2406;SDS011;37709;53.480;9.688;2023-02-28T16:53:08;2.27;;;1.60;;
2406;SDS011;37709;53.480;9.688;2023-02-28T16:55:36;3.10;;;1.67;;
2406;SDS011;37709;53.480;9.688;2023-02-28T16:58:03;3.20;;;2.00;;
2406;SDS011;37709;53.480;9.688;2023-02-28T17:00:31;3.00;;;1.90;;
2406;SDS011;37709;53.480;9.688;2023-02-28T17:02:59;3.83;;;1.77;;
2406;SDS011;37709;53.480;9.688;2023-02-28T17:05:33;3.70;;;1.90;;
2406;SDS011;37709;53.480;9.688;2023-02-28T17:08:04;2.17;;;1.97;;
2406;SDS011;37709;53.480;9.688;2023-02-28T17:10:32;2.93;;;2.37;;
2406;SDS011;37709;53.480;9.688;2023-02-28T17:12:59;1.83;;;1.60;;
2406;SDS011;37709;53.480;9.688;2023-02-28T17:15:40;4.47;;;1.83;;
2406;SDS011;37709;53.480;9.688;2023-02-28T17:18:09;5.63;;;2.80;;
2406;SDS011;37709;53.480;9.688;2023-02-28T17:20:42;4.60;;;2.80;;
2406;SDS011;37709;53.480;9.688;2023-02-28T17:23:09;2.50;;;2.30;;
2406;SDS011;37709;53.480;9.688;2023-02-28T17:25:37;3.30;;;2.60;;
2406;SDS011;37709;53.480;9.688;2023-02-28T17:28:05;2.90;;;1.90;;
2406;SDS011;37709;53.480;9.688;2023-02-28T17:30:33;2.73;;;2.10;;
2406;SDS011;37709;53.480;9.688;2023-02-28T17:33:01;3.50;;;2.43;;